Visit the IPS Meteostar Home Page IPSM China Lake Naval Air Facility FORECAST

China Lake, California

84

101

104

104

104

101

102

103

74
74
74
78
78
77
77
76

3 miles away at China Lake Naval Air Facility 5:56 GMT

Weather:

 Clear 

Wind:

S 13 mph

Temperature:

84 ° F

Pressure:

29.85

Dew Point:

34 ° F

Relative Humidity:

16

Feels Like:

81 ° F

Visibility:

10 miles


Aviation Observations:

KNID 210556Z 17011KT 10SM CLR 29/01 A2990 RMK AO2 SLP099 T02890011 10394 20289 50009 $ =

National Weather Service Forecast:
Indian Wells Valley

indian wells valley-
1100 PM PDT THU JUL 20 2017

TONIGHT

Mostly clear. Lows 71 to 77. West winds 10 to 20 mph.

FRIDAY

Sunny. Highs 96 to 105. South winds up to 10 mph.

FRIDAY NIGHT

Clear. Lows 71 to 77. West winds 10 to 20 mph.

SATURDAY

Sunny. Highs 99 to 108. Northeast winds up to 10 mph in the morning shifting to the southeast around 10 mph in the afternoon.

SATURDAY NIGHT

Clear. Lows 75 to 80. West winds 10 to 15 mph.

SUNDAY THROUGH MONDAY

Mostly clear. Highs 99 to 109. Lows 75 to 80.

MONDAY NIGHT

Partly cloudy. Lows 74 to 79.

TUESDAY AND TUESDAY NIGHT

Partly cloudy. Slight chance of thunderstorms. Highs 96 to 105. Lows 73 to 79.

WEDNESDAY

Mostly sunny. Highs 97 to 106.

WEDNESDAY NIGHT

Mostly clear. Lows 73 to 78.

THURSDAY

Sunny. Highs 98 to 107.
temperature / precipitation
inyokern 73 102 73 105 / 0 0 0 0
ridgecrest 72 105 73 108 / 0 0 0 0


Visit the IPS Meteostar Home Page